createdAt,value
2023-02-08T00:01:50.819Z,90.01
2023-02-08T00:04:22.094Z,90.10
2023-02-08T00:06:53.361Z,89.86
2023-02-08T00:09:24.756Z,89.96
2023-02-08T00:11:56.202Z,90.17
2023-02-08T00:14:27.479Z,90.45
2023-02-08T00:16:58.802Z,90.06
2023-02-08T00:19:30.192Z,90.13
2023-02-08T00:22:01.471Z,90.21
2023-02-08T00:24:33.194Z,90.71
2023-02-08T00:27:04.603Z,90.41
2023-02-08T00:29:35.932Z,89.83
2023-02-08T00:32:07.222Z,89.45
2023-02-08T00:34:38.859Z,89.89
2023-02-08T00:37:10.895Z,90.05
2023-02-08T00:39:42.250Z,89.96
2023-02-08T00:42:13.506Z,90.31
2023-02-08T00:44:45.284Z,90.10
2023-02-08T00:47:16.649Z,90.05
2023-02-08T00:49:47.948Z,89.66
2023-02-08T00:52:19.530Z,90.02
2023-02-08T00:54:50.810Z,90.08
2023-02-08T00:57:22.082Z,90.08
2023-02-08T00:59:53.489Z,89.73
2023-02-08T01:02:25.142Z,89.94
2023-02-08T01:04:56.423Z,90.28
2023-02-08T01:07:27.755Z,90.58
2023-02-08T01:10:00.551Z,89.90
2023-02-08T01:12:32.032Z,90.21
2023-02-08T01:15:03.853Z,90.10
2023-02-08T01:17:35.245Z,89.81
2023-02-08T01:20:06.979Z,89.86
2023-02-08T01:22:38.239Z,89.77
2023-02-08T01:25:09.491Z,89.98
2023-02-08T01:27:40.778Z,89.77
2023-02-08T01:30:12.845Z,90.18
2023-02-08T01:32:44.188Z,89.63
2023-02-08T01:35:15.558Z,89.87
2023-02-08T01:37:46.818Z,90.32
2023-02-08T01:40:18.155Z,90.38
2023-02-08T01:42:49.442Z,90.49
2023-02-08T01:45:27.895Z,90.51
2023-02-08T01:48:06.304Z,90.83
2023-02-08T01:51:02.722Z,90.65
2023-02-08T01:53:35.358Z,90.67
2023-02-08T01:56:18.430Z,90.50
2023-02-08T01:58:53.866Z,90.48
2023-02-08T02:01:27.220Z,90.56
2023-02-08T02:04:04.224Z,90.72
2023-02-08T02:06:40.876Z,90.43
2023-02-08T02:09:19.941Z,90.72
2023-02-08T02:11:53.313Z,90.26
2023-02-08T02:14:25.553Z,90.81
2023-02-08T02:16:59.730Z,91.20
2023-02-08T02:19:31.065Z,90.97
2023-02-08T02:22:48.556Z,90.71
2023-02-08T02:25:32.157Z,90.88
2023-02-08T02:28:38.613Z,90.66
2023-02-08T02:31:47.211Z,90.60
2023-02-08T02:34:37.102Z,90.59
2023-02-08T02:37:28.198Z,90.78
2023-02-08T02:40:25.721Z,90.41
2023-02-08T02:43:33.020Z,90.62
2023-02-08T02:46:38.774Z,90.42
2023-02-08T02:49:36.062Z,90.28
2023-02-08T02:52:21.120Z,90.37
2023-02-08T02:54:55.554Z,90.57
2023-02-08T02:57:32.347Z,90.62
2023-02-08T03:00:10.436Z,90.67
2023-02-08T03:02:42.091Z,90.77
2023-02-08T03:05:13.626Z,90.92
2023-02-08T03:07:53.695Z,90.97
2023-02-08T03:10:49.372Z,91.03
2023-02-08T03:13:35.354Z,90.67
2023-02-08T03:16:19.289Z,91.02
2023-02-08T03:19:04.912Z,90.82
2023-02-08T03:21:55.297Z,90.50
2023-02-08T03:24:36.078Z,90.85
2023-02-08T03:27:22.620Z,90.49
2023-02-08T03:30:13.269Z,90.79
2023-02-08T03:32:51.678Z,90.95
2023-02-08T03:35:29.555Z,90.87
2023-02-08T03:38:29.371Z,90.76
2023-02-08T03:41:04.287Z,90.33
2023-02-08T03:43:40.141Z,90.57
2023-02-08T03:46:15.971Z,90.42
2023-02-08T03:48:54.195Z,90.50
2023-02-08T03:51:28.100Z,90.31
2023-02-08T03:54:03.237Z,90.47
2023-02-08T03:56:41.531Z,89.97
2023-02-08T03:59:20.052Z,90.35
2023-02-08T04:01:58.794Z,90.23
2023-02-08T04:04:35.256Z,89.88
2023-02-08T04:07:06.533Z,90.12
2023-02-08T04:09:38.961Z,89.79
2023-02-08T04:12:10.392Z,89.94
2023-02-08T04:14:41.798Z,89.65
2023-02-08T04:17:13.079Z,90.17
2023-02-08T04:19:44.435Z,90.15
2023-02-08T04:22:15.757Z,90.17
2023-02-08T04:24:47.062Z,90.21
2023-02-08T04:27:18.479Z,90.77
2023-02-08T04:29:49.853Z,89.88
2023-02-08T04:32:21.165Z,89.79
2023-02-08T04:34:52.478Z,90.03
2023-02-08T04:37:23.879Z,90.26
2023-02-08T04:39:55.159Z,90.41
2023-02-08T04:42:26.571Z,89.87
2023-02-08T04:44:57.859Z,90.12
2023-02-08T04:47:29.314Z,89.86
2023-02-08T04:50:00.662Z,90.42
2023-02-08T04:52:32.057Z,89.84
2023-02-08T04:55:03.427Z,89.92
2023-02-08T04:57:34.709Z,89.52
2023-02-08T05:00:06.625Z,89.57
2023-02-08T05:02:37.901Z,90.24
2023-02-08T05:05:09.217Z,89.91
2023-02-08T05:07:43.592Z,89.50
2023-02-08T05:10:15.649Z,89.96
2023-02-08T05:12:47.090Z,90.64
2023-02-08T05:15:18.399Z,89.83
2023-02-08T05:17:49.744Z,89.88
2023-02-08T05:20:21.575Z,89.69
2023-02-08T05:22:52.874Z,89.80
2023-02-08T05:25:24.236Z,89.77
2023-02-08T05:27:55.688Z,90.42
2023-02-08T05:30:27.071Z,89.82
2023-02-08T05:32:58.616Z,89.68
2023-02-08T05:35:30.147Z,90.23
2023-02-08T05:38:01.568Z,90.09
2023-02-08T05:40:33.457Z,90.23
2023-02-08T05:43:04.820Z,90.07
2023-02-08T05:45:36.190Z,90.75
2023-02-08T05:48:07.527Z,90.32
2023-02-08T05:50:39.262Z,90.65
2023-02-08T05:53:10.904Z,90.56
2023-02-08T05:55:46.260Z,90.49
2023-02-08T05:58:17.594Z,90.74
2023-02-08T06:00:49.048Z,90.69
2023-02-08T06:03:20.599Z,90.54
2023-02-08T06:05:52.084Z,90.31
2023-02-08T06:08:23.376Z,90.88
2023-02-08T06:10:54.731Z,90.88
2023-02-08T06:13:26.122Z,91.11
2023-02-08T06:15:57.795Z,91.05
2023-02-08T06:18:29.119Z,90.50
2023-02-08T06:21:00.448Z,90.59
2023-02-08T06:23:31.966Z,90.61
2023-02-08T06:26:03.642Z,90.87
2023-02-08T06:28:35.035Z,90.68
2023-02-08T06:31:06.334Z,91.05
2023-02-08T06:33:37.717Z,91.13
2023-02-08T06:36:09.250Z,90.35
2023-02-08T06:38:40.637Z,90.63
2023-02-08T06:41:11.924Z,90.40
2023-02-08T06:43:43.302Z,90.23
2023-02-08T06:46:14.601Z,90.99
2023-02-08T06:48:46.064Z,90.72
2023-02-08T06:51:17.448Z,90.92
2023-02-08T06:53:48.909Z,91.23
2023-02-08T06:56:20.246Z,90.67
2023-02-08T06:58:51.564Z,90.53
2023-02-08T07:01:22.993Z,90.70
2023-02-08T07:03:54.435Z,90.61
2023-02-08T07:06:25.799Z,90.10
2023-02-08T07:08:57.249Z,90.93
2023-02-08T07:11:28.590Z,90.10
2023-02-08T07:14:00.111Z,90.24
2023-02-08T07:16:31.414Z,90.23
2023-02-08T07:19:02.818Z,90.60
2023-02-08T07:21:34.289Z,90.65
2023-02-08T07:24:05.902Z,90.93
2023-02-08T07:26:37.307Z,90.49
2023-02-08T07:29:08.631Z,90.69
2023-02-08T07:31:40.093Z,91.23
2023-02-08T07:34:11.497Z,91.63
2023-02-08T07:36:42.774Z,91.21
2023-02-08T07:39:14.199Z,91.22
2023-02-08T07:41:45.542Z,90.88
2023-02-08T07:44:17.064Z,91.38
2023-02-08T07:46:48.432Z,91.00
2023-02-08T07:49:19.789Z,91.50
2023-02-08T07:51:51.065Z,91.35
2023-02-08T07:54:22.516Z,91.69
2023-02-08T07:56:53.897Z,92.16
2023-02-08T07:59:25.382Z,91.59
2023-02-08T08:01:56.758Z,91.70
2023-02-08T08:04:28.157Z,91.94
2023-02-08T08:06:59.431Z,91.92
2023-02-08T08:09:30.938Z,92.28
2023-02-08T08:12:02.701Z,92.04
2023-02-08T08:14:34.029Z,91.96
2023-02-08T08:17:05.367Z,92.13
2023-02-08T08:19:36.748Z,92.48
2023-02-08T08:22:08.031Z,92.08
2023-02-08T08:24:39.311Z,92.17
2023-02-08T08:27:10.687Z,92.28
2023-02-08T08:29:42.156Z,92.09
2023-02-08T08:32:13.417Z,91.58
2023-02-08T08:34:44.715Z,92.28
2023-02-08T08:37:15.988Z,92.53
2023-02-08T08:39:47.280Z,92.63
2023-02-08T08:42:18.723Z,92.25
2023-02-08T08:44:50.131Z,92.74
2023-02-08T08:47:21.734Z,92.63
2023-02-08T08:49:53.175Z,92.59
2023-02-08T08:52:24.509Z,92.55
2023-02-08T08:54:55.891Z,92.25
2023-02-08T08:57:27.204Z,92.74
2023-02-08T08:59:58.584Z,92.03
2023-02-08T09:02:29.971Z,92.38
2023-02-08T09:05:02.677Z,92.85
2023-02-08T09:07:34.286Z,92.86
2023-02-08T09:10:06.047Z,92.43
2023-02-08T09:12:37.396Z,92.02
2023-02-08T09:15:08.912Z,91.77
2023-02-08T09:17:40.198Z,92.01
2023-02-08T09:20:12.592Z,91.57
2023-02-08T09:22:43.852Z,91.34
2023-02-08T09:25:15.492Z,91.43
2023-02-08T09:27:46.872Z,91.22
2023-02-08T09:30:18.144Z,91.20
2023-02-08T09:32:49.418Z,90.89
2023-02-08T09:35:20.694Z,91.05
2023-02-08T09:37:55.324Z,90.63
2023-02-08T09:40:42.771Z,90.72
2023-02-08T09:43:57.560Z,90.04
2023-02-08T09:46:32.637Z,90.32
2023-02-08T09:49:08.856Z,89.36
2023-02-08T09:51:53.577Z,89.31
2023-02-08T09:54:39.017Z,89.64
2023-02-08T09:57:16.172Z,89.37
2023-02-08T10:00:00.142Z,89.69
2023-02-08T10:02:34.099Z,89.72
2023-02-08T10:05:20.475Z,88.79
2023-02-08T10:07:51.907Z,89.46
2023-02-08T10:10:59.086Z,89.09
2023-02-08T10:13:45.703Z,89.11
2023-02-08T10:16:41.952Z,89.14
2023-02-08T10:19:46.852Z,87.48
2023-02-08T10:22:48.990Z,88.63
2023-02-08T10:25:27.308Z,88.34
2023-02-08T10:28:23.246Z,87.83
2023-02-08T10:31:10.535Z,87.41
2023-02-08T10:34:00.884Z,88.01
2023-02-08T10:36:39.424Z,87.75
2023-02-08T10:39:23.963Z,87.24
2023-02-08T10:41:55.653Z,87.20
2023-02-08T10:44:55.944Z,86.94
2023-02-08T10:47:42.979Z,86.52
2023-02-08T10:50:35.531Z,86.25
2023-02-08T10:53:15.354Z,87.06
2023-02-08T10:55:48.188Z,87.19
2023-02-08T10:58:22.975Z,86.92
2023-02-08T11:00:55.160Z,86.01
2023-02-08T11:03:29.213Z,85.16
2023-02-08T11:06:00.672Z,84.98
2023-02-08T11:08:32.036Z,85.39
2023-02-08T11:11:10.260Z,84.77
2023-02-08T11:13:44.352Z,85.33
2023-02-08T11:16:26.690Z,84.58
2023-02-08T11:19:07.739Z,84.28
2023-02-08T11:21:41.094Z,84.09
2023-02-08T11:24:17.476Z,83.81
2023-02-08T11:26:50.945Z,83.61
2023-02-08T11:29:25.824Z,83.22
2023-02-08T11:32:01.358Z,82.88
2023-02-08T11:34:39.138Z,82.99
2023-02-08T11:37:17.538Z,82.53
2023-02-08T11:39:54.139Z,82.81
2023-02-08T11:42:40.983Z,81.95
2023-02-08T11:45:30.038Z,82.55
2023-02-08T11:48:04.934Z,83.84
2023-02-08T11:50:39.284Z,83.22
2023-02-08T11:53:27.569Z,82.56
2023-02-08T11:56:06.326Z,82.46
2023-02-08T11:58:37.658Z,82.14
2023-02-08T12:01:21.130Z,80.83
2023-02-08T12:03:52.780Z,81.27
2023-02-08T12:06:33.804Z,80.85
2023-02-08T12:09:30.507Z,80.24
2023-02-08T12:12:26.609Z,79.65
2023-02-08T12:15:16.840Z,80.74
2023-02-08T12:17:48.059Z,80.36
2023-02-08T12:20:42.438Z,79.37
2023-02-08T12:23:49.125Z,79.29
2023-02-08T12:26:45.049Z,79.87
2023-02-08T12:29:47.986Z,79.56
2023-02-08T12:32:51.929Z,80.06
2023-02-08T12:36:02.790Z,78.94
2023-02-08T12:39:19.699Z,78.92
2023-02-08T12:42:19.424Z,79.21
2023-02-08T12:45:09.319Z,79.02
2023-02-08T12:47:58.269Z,79.18
2023-02-08T12:50:52.825Z,78.24
2023-02-08T12:53:43.797Z,77.65
2023-02-08T12:56:26.299Z,77.56
2023-02-08T12:59:11.790Z,77.83
2023-02-08T13:01:48.402Z,77.02
2023-02-08T13:04:29.702Z,76.88
2023-02-08T13:07:09.974Z,76.69
2023-02-08T13:10:02.515Z,76.23
2023-02-08T13:12:42.141Z,75.99
2023-02-08T13:15:30.157Z,75.53
2023-02-08T13:18:29.731Z,75.17
2023-02-08T13:21:11.469Z,75.86
2023-02-08T13:23:52.436Z,75.63
2023-02-08T13:26:28.005Z,75.64
2023-02-08T13:29:02.458Z,75.45
2023-02-08T13:31:40.953Z,75.03
2023-02-08T13:34:21.489Z,74.32
2023-02-08T13:36:57.362Z,74.80
2023-02-08T13:39:36.736Z,74.53
2023-02-08T13:42:33.007Z,74.26
2023-02-08T13:45:07.478Z,75.02
2023-02-08T13:47:49.188Z,74.17
2023-02-08T13:50:48.516Z,73.97
2023-02-08T13:53:38.435Z,73.47
2023-02-08T13:56:12.067Z,74.02
2023-02-08T13:58:49.368Z,73.67
2023-02-08T14:01:22.405Z,73.08
2023-02-08T14:04:09.826Z,72.17
2023-02-08T14:06:43.990Z,72.84
2023-02-08T14:09:15.254Z,72.74
2023-02-08T14:11:54.572Z,72.09
2023-02-08T14:14:36.342Z,72.34
2023-02-08T14:17:22.217Z,72.47
2023-02-08T14:20:03.896Z,72.48
2023-02-08T14:22:51.868Z,71.84
2023-02-08T14:25:45.007Z,72.17
2023-02-08T14:28:30.398Z,71.71
2023-02-08T14:31:07.183Z,72.36
2023-02-08T14:33:42.948Z,71.74
2023-02-08T14:36:35.001Z,71.78
2023-02-08T14:39:26.300Z,71.69
2023-02-08T14:42:05.274Z,72.13
2023-02-08T14:44:39.522Z,71.95
2023-02-08T14:47:36.807Z,71.17
2023-02-08T14:50:18.871Z,72.36
2023-02-08T14:53:13.298Z,72.61
2023-02-08T14:55:52.289Z,73.07
2023-02-08T14:58:37.497Z,72.37
2023-02-08T15:01:44.039Z,72.04
2023-02-08T15:04:18.251Z,72.84
2023-02-08T15:07:04.624Z,72.71
2023-02-08T15:09:38.681Z,72.94
2023-02-08T15:12:24.626Z,73.27
2023-02-08T15:14:59.172Z,72.86
2023-02-08T15:17:38.566Z,72.45
2023-02-08T15:20:22.343Z,72.21
2023-02-08T15:23:02.548Z,72.64
2023-02-08T15:25:36.839Z,72.45
2023-02-08T15:28:20.753Z,71.99
2023-02-08T15:30:59.401Z,72.01
2023-02-08T15:33:31.150Z,72.55
2023-02-08T15:36:06.775Z,72.54
2023-02-08T15:38:38.779Z,72.26
2023-02-08T15:41:14.442Z,72.63
2023-02-08T15:43:45.735Z,73.38
2023-02-08T15:46:26.594Z,72.16
2023-02-08T15:48:59.351Z,72.62
2023-02-08T15:51:30.889Z,72.57
2023-02-08T15:54:02.942Z,72.03
2023-02-08T15:56:40.716Z,72.11
2023-02-08T15:59:25.471Z,71.99
2023-02-08T16:01:58.292Z,71.85
2023-02-08T16:04:29.616Z,72.55
2023-02-08T16:07:01.240Z,72.31
2023-02-08T16:09:32.692Z,72.90
2023-02-08T16:12:04.299Z,73.11
2023-02-08T16:14:52.200Z,71.51
2023-02-08T16:17:44.684Z,72.33
2023-02-08T16:20:26.003Z,72.88
2023-02-08T16:23:21.351Z,72.38
2023-02-08T16:25:52.661Z,73.67
2023-02-08T16:28:28.013Z,73.57
2023-02-08T16:31:01.965Z,73.71
2023-02-08T16:33:37.143Z,73.19
2023-02-08T16:36:22.888Z,73.88
2023-02-08T16:39:16.079Z,74.23
2023-02-08T16:41:58.847Z,74.72
2023-02-08T16:44:36.585Z,74.42
2023-02-08T16:47:28.921Z,74.95
2023-02-08T16:50:00.206Z,75.40
2023-02-08T16:52:31.964Z,75.30
2023-02-08T16:55:03.836Z,75.42
2023-02-08T16:57:44.432Z,75.54
2023-02-08T17:00:23.390Z,75.05
2023-02-08T17:02:55.775Z,76.53
2023-02-08T17:05:30.673Z,76.53
2023-02-08T17:08:03.955Z,76.77
2023-02-08T17:10:35.912Z,77.01
2023-02-08T17:13:19.918Z,76.82
2023-02-08T17:15:52.908Z,77.10
2023-02-08T17:18:24.208Z,77.43
2023-02-08T17:20:59.517Z,77.58
2023-02-08T17:23:30.938Z,77.55
2023-02-08T17:26:02.938Z,78.30
2023-02-08T17:28:35.669Z,77.76
2023-02-08T17:31:07.184Z,78.22
2023-02-08T17:33:40.667Z,78.18
2023-02-08T17:36:14.677Z,78.26
2023-02-08T17:38:46.971Z,79.52
2023-02-08T17:41:19.952Z,79.04
2023-02-08T17:43:54.530Z,79.04
2023-02-08T17:46:27.808Z,79.44
2023-02-08T17:49:01.413Z,79.46
2023-02-08T17:51:34.194Z,79.24
2023-02-08T17:54:05.671Z,79.75
2023-02-08T17:56:37.021Z,80.02
2023-02-08T17:59:08.727Z,79.63
2023-02-08T18:01:40.492Z,79.81
2023-02-08T18:04:13.217Z,79.85
2023-02-08T18:06:44.472Z,80.00
2023-02-08T18:09:15.899Z,80.28
2023-02-08T18:11:47.154Z,80.23
2023-02-08T18:14:18.822Z,80.75
2023-02-08T18:16:50.190Z,80.22
2023-02-08T18:19:22.642Z,80.56
2023-02-08T18:21:53.996Z,80.28
2023-02-08T18:24:25.256Z,80.82
2023-02-08T18:26:58.922Z,81.29
2023-02-08T18:29:31.111Z,80.77
2023-02-08T18:32:02.612Z,80.82
2023-02-08T18:34:34.372Z,81.43
2023-02-08T18:37:05.619Z,81.65
2023-02-08T18:39:36.999Z,81.44
2023-02-08T18:42:08.459Z,81.48
2023-02-08T18:44:39.806Z,81.85
2023-02-08T18:47:11.128Z,82.38
2023-02-08T18:49:42.478Z,81.75
2023-02-08T18:52:15.755Z,82.43
2023-02-08T18:54:47.066Z,82.13
2023-02-08T18:57:18.574Z,81.63
2023-02-08T18:59:49.937Z,81.89
2023-02-08T19:02:23.183Z,82.71
2023-02-08T19:04:54.494Z,81.96
2023-02-08T19:07:25.848Z,81.98
2023-02-08T19:09:57.228Z,83.26
2023-02-08T19:12:28.563Z,83.20
2023-02-08T19:14:59.819Z,83.30
2023-02-08T19:17:31.113Z,82.56
2023-02-08T19:20:02.391Z,82.70
2023-02-08T19:22:33.895Z,82.40
2023-02-08T19:25:05.572Z,83.20
2023-02-08T19:27:37.019Z,82.71
2023-02-08T19:30:09.216Z,83.72
2023-02-08T19:32:40.465Z,83.18
2023-02-08T19:35:12.258Z,83.06
2023-02-08T19:37:45.554Z,84.25
2023-02-08T19:40:18.195Z,83.10
2023-02-08T19:42:49.518Z,83.38
2023-02-08T19:45:20.805Z,84.48
2023-02-08T19:47:52.730Z,84.46
2023-02-08T19:50:24.052Z,83.66
2023-02-08T19:52:55.355Z,84.51
2023-02-08T19:55:26.631Z,84.42
2023-02-08T19:57:57.925Z,84.22
2023-02-08T20:00:29.563Z,84.68
2023-02-08T20:03:07.766Z,84.33
2023-02-08T20:05:45.495Z,85.14
2023-02-08T20:08:18.609Z,84.97
2023-02-08T20:10:50.294Z,84.76
2023-02-08T20:13:22.829Z,85.46
2023-02-08T20:16:01.676Z,84.53
2023-02-08T20:18:33.060Z,84.92
2023-02-08T20:21:05.267Z,84.58
2023-02-08T20:23:36.989Z,85.00
2023-02-08T20:26:15.362Z,85.35
2023-02-08T20:28:51.112Z,84.67
2023-02-08T20:31:42.965Z,84.98
2023-02-08T20:34:16.438Z,85.56
2023-02-08T20:37:05.857Z,85.67
2023-02-08T20:39:38.071Z,86.19
2023-02-08T20:42:10.005Z,85.91
2023-02-08T20:44:41.363Z,85.86
2023-02-08T20:47:18.957Z,85.35
2023-02-08T20:49:51.130Z,85.47
2023-02-08T20:52:22.748Z,86.31
2023-02-08T20:54:54.099Z,85.49
2023-02-08T20:57:25.615Z,85.77
2023-02-08T20:59:56.903Z,86.03
2023-02-08T21:02:28.228Z,86.44
2023-02-08T21:05:00.624Z,86.17
2023-02-08T21:07:31.932Z,86.07
2023-02-08T21:10:03.910Z,86.20
2023-02-08T21:12:36.465Z,86.43
2023-02-08T21:15:09.212Z,86.21
2023-02-08T21:17:41.168Z,86.23
2023-02-08T21:20:12.781Z,86.75
2023-02-08T21:22:44.084Z,86.80
2023-02-08T21:25:15.477Z,86.15
2023-02-08T21:27:46.810Z,86.93
2023-02-08T21:30:18.196Z,86.86
2023-02-08T21:32:49.465Z,85.99
2023-02-08T21:35:20.737Z,86.52
2023-02-08T21:37:52.016Z,86.25
2023-02-08T21:40:23.295Z,86.39
2023-02-08T21:42:54.580Z,85.91
2023-02-08T21:45:25.881Z,86.08
2023-02-08T21:47:57.273Z,87.05
2023-02-08T21:50:47.395Z,86.58
2023-02-08T21:53:37.473Z,86.38
2023-02-08T21:56:09.788Z,86.71
2023-02-08T21:58:41.099Z,86.51
2023-02-08T22:01:12.420Z,87.26
2023-02-08T22:03:43.775Z,86.89
2023-02-08T22:06:15.075Z,87.42
2023-02-08T22:08:46.386Z,87.44
2023-02-08T22:11:17.676Z,87.78
2023-02-08T22:13:48.933Z,87.56
2023-02-08T22:16:20.235Z,86.98
2023-02-08T22:18:51.528Z,87.30
2023-02-08T22:21:22.806Z,87.38
2023-02-08T22:23:54.073Z,87.64
2023-02-08T22:26:25.692Z,87.15
2023-02-08T22:28:57.028Z,87.52
2023-02-08T22:31:28.416Z,87.32
2023-02-08T22:33:59.785Z,87.44
2023-02-08T22:36:31.192Z,87.51
2023-02-08T22:39:02.739Z,87.44
2023-02-08T22:41:34.243Z,87.02
2023-02-08T22:44:05.685Z,86.71
2023-02-08T22:46:36.987Z,87.40
2023-02-08T22:49:08.790Z,87.60
2023-02-08T22:51:40.198Z,88.10
2023-02-08T22:54:11.474Z,87.47
2023-02-08T22:56:42.841Z,87.17
2023-02-08T22:59:14.095Z,87.16
2023-02-08T23:01:45.592Z,87.41
2023-02-08T23:04:16.911Z,87.40
2023-02-08T23:06:48.343Z,87.35
2023-02-08T23:09:19.670Z,87.58
2023-02-08T23:11:51.112Z,87.48
2023-02-08T23:14:22.354Z,87.94
2023-02-08T23:16:53.720Z,88.17
2023-02-08T23:19:25.377Z,88.02
2023-02-08T23:22:01.090Z,87.99
2023-02-08T23:24:32.385Z,87.48
2023-02-08T23:27:03.805Z,87.56
2023-02-08T23:29:35.160Z,87.52
2023-02-08T23:32:06.524Z,87.95
2023-02-08T23:34:37.906Z,88.05
2023-02-08T23:37:09.338Z,87.61
2023-02-08T23:39:40.589Z,88.11
2023-02-08T23:42:25.276Z,87.69
2023-02-08T23:44:59.784Z,87.72
2023-02-08T23:47:31.615Z,87.64
2023-02-08T23:50:02.989Z,88.36
2023-02-08T23:52:36.113Z,87.79
2023-02-08T23:55:08.086Z,88.06
2023-02-08T23:57:39.420Z,88.26
